Terminal Aerodrome Forecast
Issued by NWS

Home | Current Version | Previous Version | Text Only | Print | Product List | Glossary On
Versions: 1 2 3 4 5 6 7 8 9 10 11 12 13 14 15 16 17 18 19 20 21 22
381
FTUS43 KIND 212332
TAFBMG
TAF
KBMG 212332Z 2200/2224 13004KT 6SM BR VCSH BKN045 OVC080
     FM220500 14004KT 4SM BR OVC010
     FM221100 VRB03KT 1 1/2SM BR OVC003
     FM221200 00000KT 1/2SM FG OVC003
     FM221500 20004KT 1SM BR BKN003
     FM221700 20005KT 6SM BR BKN015
     FM221800 20006KT P6SM BKN025
     FM222000 21007KT P6SM BKN035
      AMD LTD TO CLD VIS AND WIND 2202/2214=

USA.gov is the U.S. government's official web portal to all federal, state and local government web resources and services.